sensor_id;sensor_type;location;lat;lon;timestamp;P1;durP1;ratioP1;P2;durP2;ratioP2
58770;SDS011;44539;42.962;1.596;2022-10-18T00:01:05;6.40;;;3.13;;
58770;SDS011;44539;42.962;1.596;2022-10-18T00:03:32;7.57;;;3.25;;
58770;SDS011;44539;42.962;1.596;2022-10-18T00:05:58;8.95;;;3.28;;
58770;SDS011;44539;42.962;1.596;2022-10-18T00:08:24;6.18;;;2.78;;
58770;SDS011;44539;42.962;1.596;2022-10-18T00:10:49;8.55;;;3.10;;
58770;SDS011;44539;42.962;1.596;2022-10-18T00:13:15;7.75;;;2.90;;
58770;SDS011;44539;42.962;1.596;2022-10-18T00:15:47;8.88;;;3.00;;
58770;SDS011;44539;42.962;1.596;2022-10-18T00:18:18;6.13;;;3.03;;
58770;SDS011;44539;42.962;1.596;2022-10-18T00:20:44;7.00;;;3.03;;
58770;SDS011;44539;42.962;1.596;2022-10-18T00:23:10;9.82;;;3.22;;
58770;SDS011;44539;42.962;1.596;2022-10-18T00:25:35;8.15;;;3.00;;
58770;SDS011;44539;42.962;1.596;2022-10-18T00:28:01;7.28;;;3.15;;
58770;SDS011;44539;42.962;1.596;2022-10-18T00:30:26;9.43;;;2.92;;
58770;SDS011;44539;42.962;1.596;2022-10-18T00:32:51;7.50;;;3.28;;
58770;SDS011;44539;42.962;1.596;2022-10-18T00:35:17;8.40;;;3.40;;
58770;SDS011;44539;42.962;1.596;2022-10-18T00:37:42;7.15;;;3.25;;
58770;SDS011;44539;42.962;1.596;2022-10-18T00:40:08;8.45;;;3.13;;
58770;SDS011;44539;42.962;1.596;2022-10-18T00:42:34;8.65;;;2.90;;
58770;SDS011;44539;42.962;1.596;2022-10-18T00:45:15;9.45;;;3.72;;
58770;SDS011;44539;42.962;1.596;2022-10-18T00:47:53;7.22;;;3.15;;
58770;SDS011;44539;42.962;1.596;2022-10-18T00:50:24;8.13;;;3.10;;
58770;SDS011;44539;42.962;1.596;2022-10-18T00:52:52;7.78;;;3.22;;
58770;SDS011;44539;42.962;1.596;2022-10-18T00:55:20;6.93;;;2.97;;
58770;SDS011;44539;42.962;1.596;2022-10-18T00:57:46;6.25;;;3.22;;
58770;SDS011;44539;42.962;1.596;2022-10-18T01:00:13;8.18;;;2.95;;
58770;SDS011;44539;42.962;1.596;2022-10-18T01:02:39;6.93;;;3.08;;
58770;SDS011;44539;42.962;1.596;2022-10-18T01:05:06;5.80;;;2.60;;
58770;SDS011;44539;42.962;1.596;2022-10-18T01:10:20;6.88;;;2.80;;
58770;SDS011;44539;42.962;1.596;2022-10-18T01:15:25;12.55;;;3.00;;
58770;SDS011;44539;42.962;1.596;2022-10-18T01:31:47;6.10;;;2.60;;
58770;SDS011;44539;42.962;1.596;2022-10-18T01:34:17;7.75;;;2.80;;
58770;SDS011;44539;42.962;1.596;2022-10-18T01:36:50;8.13;;;2.97;;
58770;SDS011;44539;42.962;1.596;2022-10-18T01:39:21;6.82;;;3.25;;
58770;SDS011;44539;42.962;1.596;2022-10-18T01:41:50;7.35;;;2.92;;
58770;SDS011;44539;42.962;1.596;2022-10-18T01:44:20;7.28;;;3.30;;
58770;SDS011;44539;42.962;1.596;2022-10-18T01:46:48;7.45;;;3.33;;
58770;SDS011;44539;42.962;1.596;2022-10-18T01:49:15;4.03;;;2.78;;
58770;SDS011;44539;42.962;1.596;2022-10-18T01:51:40;7.35;;;3.00;;
58770;SDS011;44539;42.962;1.596;2022-10-18T01:54:06;12.43;;;3.40;;
58770;SDS011;44539;42.962;1.596;2022-10-18T01:59:36;6.57;;;3.05;;
58770;SDS011;44539;42.962;1.596;2022-10-18T02:02:27;6.05;;;2.65;;
58770;SDS011;44539;42.962;1.596;2022-10-18T02:07:36;5.38;;;2.60;;
58770;SDS011;44539;42.962;1.596;2022-10-18T02:12:56;7.65;;;2.60;;
58770;SDS011;44539;42.962;1.596;2022-10-18T02:15:23;7.32;;;3.08;;
58770;SDS011;44539;42.962;1.596;2022-10-18T02:17:53;6.40;;;2.60;;
58770;SDS011;44539;42.962;1.596;2022-10-18T02:20:20;6.38;;;2.75;;
58770;SDS011;44539;42.962;1.596;2022-10-18T02:22:48;8.57;;;3.00;;
58770;SDS011;44539;42.962;1.596;2022-10-18T02:25:19;8.15;;;3.30;;
58770;SDS011;44539;42.962;1.596;2022-10-18T02:27:47;4.35;;;2.80;;
58770;SDS011;44539;42.962;1.596;2022-10-18T02:30:13;7.65;;;2.60;;
58770;SDS011;44539;42.962;1.596;2022-10-18T02:32:40;10.18;;;2.63;;
58770;SDS011;44539;42.962;1.596;2022-10-18T02:35:19;7.90;;;2.78;;
58770;SDS011;44539;42.962;1.596;2022-10-18T02:37:46;3.42;;;2.28;;
58770;SDS011;44539;42.962;1.596;2022-10-18T02:40:14;6.70;;;2.60;;
58770;SDS011;44539;42.962;1.596;2022-10-18T02:42:44;5.53;;;2.65;;
58770;SDS011;44539;42.962;1.596;2022-10-18T02:45:12;5.20;;;2.40;;
58770;SDS011;44539;42.962;1.596;2022-10-18T02:47:38;5.68;;;2.53;;
58770;SDS011;44539;42.962;1.596;2022-10-18T02:50:04;11.40;;;2.55;;
58770;SDS011;44539;42.962;1.596;2022-10-18T02:52:30;11.07;;;3.17;;
58770;SDS011;44539;42.962;1.596;2022-10-18T02:54:55;7.80;;;2.53;;
58770;SDS011;44539;42.962;1.596;2022-10-18T02:57:20;5.32;;;2.60;;
58770;SDS011;44539;42.962;1.596;2022-10-18T02:59:46;5.35;;;2.60;;
58770;SDS011;44539;42.962;1.596;2022-10-18T03:02:11;4.75;;;2.60;;
58770;SDS011;44539;42.962;1.596;2022-10-18T03:04:37;12.07;;;2.50;;
58770;SDS011;44539;42.962;1.596;2022-10-18T03:07:02;6.32;;;2.47;;
58770;SDS011;44539;42.962;1.596;2022-10-18T03:09:27;4.97;;;2.35;;
58770;SDS011;44539;42.962;1.596;2022-10-18T03:11:53;8.07;;;2.42;;
58770;SDS011;44539;42.962;1.596;2022-10-18T03:14:18;8.70;;;2.72;;
58770;SDS011;44539;42.962;1.596;2022-10-18T03:16:44;6.25;;;2.60;;
58770;SDS011;44539;42.962;1.596;2022-10-18T03:19:09;7.28;;;2.65;;
58770;SDS011;44539;42.962;1.596;2022-10-18T03:21:34;5.68;;;2.38;;
58770;SDS011;44539;42.962;1.596;2022-10-18T03:24:00;6.28;;;2.33;;
58770;SDS011;44539;42.962;1.596;2022-10-18T03:26:26;5.72;;;2.55;;
58770;SDS011;44539;42.962;1.596;2022-10-18T03:28:51;4.40;;;2.33;;
58770;SDS011;44539;42.962;1.596;2022-10-18T03:31:17;7.13;;;2.67;;
58770;SDS011;44539;42.962;1.596;2022-10-18T03:33:42;7.82;;;2.38;;
58770;SDS011;44539;42.962;1.596;2022-10-18T03:36:08;8.52;;;3.22;;
58770;SDS011;44539;42.962;1.596;2022-10-18T03:38:33;9.10;;;2.47;;
58770;SDS011;44539;42.962;1.596;2022-10-18T03:40:59;5.13;;;2.33;;
58770;SDS011;44539;42.962;1.596;2022-10-18T03:43:24;5.38;;;2.47;;
58770;SDS011;44539;42.962;1.596;2022-10-18T03:45:50;6.68;;;2.55;;
58770;SDS011;44539;42.962;1.596;2022-10-18T03:48:15;6.80;;;2.35;;
58770;SDS011;44539;42.962;1.596;2022-10-18T03:50:41;8.90;;;2.35;;
58770;SDS011;44539;42.962;1.596;2022-10-18T03:53:07;7.60;;;2.65;;
58770;SDS011;44539;42.962;1.596;2022-10-18T03:55:32;10.40;;;2.20;;
58770;SDS011;44539;42.962;1.596;2022-10-18T03:57:58;8.05;;;2.40;;
58770;SDS011;44539;42.962;1.596;2022-10-18T04:00:23;6.00;;;2.10;;
58770;SDS011;44539;42.962;1.596;2022-10-18T04:02:49;6.15;;;2.60;;
58770;SDS011;44539;42.962;1.596;2022-10-18T04:05:14;8.07;;;2.38;;
58770;SDS011;44539;42.962;1.596;2022-10-18T04:07:40;9.45;;;2.72;;
58770;SDS011;44539;42.962;1.596;2022-10-18T04:10:05;8.52;;;2.97;;
58770;SDS011;44539;42.962;1.596;2022-10-18T04:12:31;5.53;;;2.65;;
58770;SDS011;44539;42.962;1.596;2022-10-18T04:14:57;7.47;;;2.30;;
58770;SDS011;44539;42.962;1.596;2022-10-18T04:17:22;7.65;;;2.30;;
58770;SDS011;44539;42.962;1.596;2022-10-18T04:19:47;7.15;;;2.38;;
58770;SDS011;44539;42.962;1.596;2022-10-18T04:22:13;7.53;;;2.33;;
58770;SDS011;44539;42.962;1.596;2022-10-18T04:24:39;7.32;;;2.47;;
58770;SDS011;44539;42.962;1.596;2022-10-18T04:27:04;3.80;;;2.30;;
58770;SDS011;44539;42.962;1.596;2022-10-18T04:29:30;7.68;;;2.42;;
58770;SDS011;44539;42.962;1.596;2022-10-18T04:31:56;5.18;;;2.15;;
58770;SDS011;44539;42.962;1.596;2022-10-18T04:34:21;6.78;;;2.58;;
58770;SDS011;44539;42.962;1.596;2022-10-18T04:36:47;5.20;;;2.33;;
58770;SDS011;44539;42.962;1.596;2022-10-18T04:39:12;6.40;;;2.00;;
58770;SDS011;44539;42.962;1.596;2022-10-18T04:41:38;6.82;;;2.42;;
58770;SDS011;44539;42.962;1.596;2022-10-18T04:44:03;5.40;;;2.28;;
58770;SDS011;44539;42.962;1.596;2022-10-18T04:46:29;7.72;;;2.53;;
58770;SDS011;44539;42.962;1.596;2022-10-18T04:48:54;5.93;;;2.90;;
58770;SDS011;44539;42.962;1.596;2022-10-18T04:51:19;6.43;;;2.55;;
58770;SDS011;44539;42.962;1.596;2022-10-18T04:53:45;9.15;;;2.30;;
58770;SDS011;44539;42.962;1.596;2022-10-18T04:56:10;10.93;;;2.15;;
58770;SDS011;44539;42.962;1.596;2022-10-18T04:58:36;8.27;;;2.38;;
58770;SDS011;44539;42.962;1.596;2022-10-18T05:01:04;5.68;;;2.35;;
58770;SDS011;44539;42.962;1.596;2022-10-18T05:03:30;7.38;;;2.47;;
58770;SDS011;44539;42.962;1.596;2022-10-18T05:05:56;5.35;;;1.98;;
58770;SDS011;44539;42.962;1.596;2022-10-18T05:08:21;10.07;;;2.35;;
58770;SDS011;44539;42.962;1.596;2022-10-18T05:10:47;6.70;;;2.50;;
58770;SDS011;44539;42.962;1.596;2022-10-18T05:13:12;5.78;;;2.08;;
58770;SDS011;44539;42.962;1.596;2022-10-18T05:15:38;5.05;;;1.90;;
58770;SDS011;44539;42.962;1.596;2022-10-18T05:18:03;4.43;;;2.33;;
58770;SDS011;44539;42.962;1.596;2022-10-18T05:20:29;4.82;;;2.30;;
58770;SDS011;44539;42.962;1.596;2022-10-18T05:22:54;7.28;;;2.15;;
58770;SDS011;44539;42.962;1.596;2022-10-18T05:25:21;6.93;;;2.28;;
58770;SDS011;44539;42.962;1.596;2022-10-18T05:27:46;7.93;;;2.45;;
58770;SDS011;44539;42.962;1.596;2022-10-18T05:30:11;7.88;;;2.47;;
58770;SDS011;44539;42.962;1.596;2022-10-18T05:32:37;5.53;;;2.03;;
58770;SDS011;44539;42.962;1.596;2022-10-18T05:35:02;7.72;;;2.30;;
58770;SDS011;44539;42.962;1.596;2022-10-18T05:37:28;7.07;;;2.50;;
58770;SDS011;44539;42.962;1.596;2022-10-18T05:39:53;6.32;;;2.17;;
58770;SDS011;44539;42.962;1.596;2022-10-18T05:42:19;5.10;;;1.90;;
58770;SDS011;44539;42.962;1.596;2022-10-18T05:44:44;5.10;;;2.35;;
58770;SDS011;44539;42.962;1.596;2022-10-18T05:47:10;8.77;;;2.45;;
58770;SDS011;44539;42.962;1.596;2022-10-18T05:49:35;6.03;;;2.22;;
58770;SDS011;44539;42.962;1.596;2022-10-18T05:52:00;4.88;;;2.25;;
58770;SDS011;44539;42.962;1.596;2022-10-18T05:54:26;5.32;;;2.40;;
58770;SDS011;44539;42.962;1.596;2022-10-18T05:56:51;9.35;;;2.92;;
58770;SDS011;44539;42.962;1.596;2022-10-18T05:59:17;4.93;;;2.40;;
58770;SDS011;44539;42.962;1.596;2022-10-18T06:01:42;11.75;;;2.30;;
58770;SDS011;44539;42.962;1.596;2022-10-18T06:04:08;4.80;;;2.03;;
58770;SDS011;44539;42.962;1.596;2022-10-18T06:06:36;4.90;;;2.03;;
58770;SDS011;44539;42.962;1.596;2022-10-18T06:09:03;5.85;;;2.25;;
58770;SDS011;44539;42.962;1.596;2022-10-18T06:11:30;5.95;;;2.20;;
58770;SDS011;44539;42.962;1.596;2022-10-18T06:13:55;5.18;;;1.88;;
58770;SDS011;44539;42.962;1.596;2022-10-18T06:16:22;5.97;;;2.30;;
58770;SDS011;44539;42.962;1.596;2022-10-18T06:18:50;5.63;;;1.95;;
58770;SDS011;44539;42.962;1.596;2022-10-18T06:21:17;13.35;;;2.47;;
58770;SDS011;44539;42.962;1.596;2022-10-18T06:23:47;10.48;;;3.92;;
58770;SDS011;44539;42.962;1.596;2022-10-18T06:26:13;6.72;;;2.38;;
58770;SDS011;44539;42.962;1.596;2022-10-18T06:28:39;8.90;;;2.53;;
58770;SDS011;44539;42.962;1.596;2022-10-18T06:31:04;7.40;;;2.17;;
58770;SDS011;44539;42.962;1.596;2022-10-18T06:33:30;8.88;;;2.83;;
58770;SDS011;44539;42.962;1.596;2022-10-18T06:36:01;9.05;;;2.17;;
58770;SDS011;44539;42.962;1.596;2022-10-18T06:38:31;5.57;;;2.50;;
58770;SDS011;44539;42.962;1.596;2022-10-18T06:40:57;4.57;;;2.20;;
58770;SDS011;44539;42.962;1.596;2022-10-18T06:43:23;6.20;;;2.25;;
58770;SDS011;44539;42.962;1.596;2022-10-18T06:45:50;5.40;;;2.20;;
58770;SDS011;44539;42.962;1.596;2022-10-18T06:48:16;5.60;;;2.60;;
58770;SDS011;44539;42.962;1.596;2022-10-18T06:50:42;4.80;;;1.98;;
58770;SDS011;44539;42.962;1.596;2022-10-18T06:53:24;5.60;;;2.28;;
58770;SDS011;44539;42.962;1.596;2022-10-18T06:55:52;9.13;;;2.55;;
58770;SDS011;44539;42.962;1.596;2022-10-18T06:58:17;4.93;;;2.28;;
58770;SDS011;44539;42.962;1.596;2022-10-18T07:00:43;10.75;;;2.30;;
58770;SDS011;44539;42.962;1.596;2022-10-18T07:03:09;7.05;;;2.25;;
58770;SDS011;44539;42.962;1.596;2022-10-18T07:05:35;6.35;;;2.40;;
58770;SDS011;44539;42.962;1.596;2022-10-18T07:08:01;6.18;;;2.30;;
58770;SDS011;44539;42.962;1.596;2022-10-18T07:10:27;6.40;;;2.40;;
58770;SDS011;44539;42.962;1.596;2022-10-18T07:12:52;7.60;;;2.20;;
58770;SDS011;44539;42.962;1.596;2022-10-18T07:15:17;7.43;;;2.60;;
58770;SDS011;44539;42.962;1.596;2022-10-18T07:17:46;6.38;;;2.55;;
58770;SDS011;44539;42.962;1.596;2022-10-18T07:20:11;6.50;;;2.42;;
58770;SDS011;44539;42.962;1.596;2022-10-18T07:22:37;9.15;;;2.30;;
58770;SDS011;44539;42.962;1.596;2022-10-18T07:25:04;4.75;;;2.20;;
58770;SDS011;44539;42.962;1.596;2022-10-18T07:27:30;6.90;;;2.20;;
58770;SDS011;44539;42.962;1.596;2022-10-18T07:29:55;4.47;;;2.17;;
58770;SDS011;44539;42.962;1.596;2022-10-18T07:32:21;6.78;;;2.22;;
58770;SDS011;44539;42.962;1.596;2022-10-18T07:34:46;12.45;;;2.20;;
58770;SDS011;44539;42.962;1.596;2022-10-18T07:37:12;5.40;;;1.98;;
58770;SDS011;44539;42.962;1.596;2022-10-18T07:39:37;6.00;;;2.47;;
58770;SDS011;44539;42.962;1.596;2022-10-18T07:42:03;11.40;;;2.88;;
58770;SDS011;44539;42.962;1.596;2022-10-18T07:44:28;9.93;;;2.63;;
58770;SDS011;44539;42.962;1.596;2022-10-18T07:46:53;10.98;;;2.28;;
58770;SDS011;44539;42.962;1.596;2022-10-18T07:49:19;4.45;;;1.80;;
58770;SDS011;44539;42.962;1.596;2022-10-18T07:51:44;10.73;;;2.67;;
58770;SDS011;44539;42.962;1.596;2022-10-18T07:54:10;10.35;;;2.15;;
58770;SDS011;44539;42.962;1.596;2022-10-18T07:56:35;5.43;;;2.50;;
58770;SDS011;44539;42.962;1.596;2022-10-18T07:59:00;12.90;;;2.30;;
58770;SDS011;44539;42.962;1.596;2022-10-18T08:01:26;5.97;;;2.05;;
58770;SDS011;44539;42.962;1.596;2022-10-18T08:03:51;10.07;;;2.25;;
58770;SDS011;44539;42.962;1.596;2022-10-18T08:06:18;5.20;;;2.28;;
58770;SDS011;44539;42.962;1.596;2022-10-18T08:08:45;5.05;;;2.20;;
58770;SDS011;44539;42.962;1.596;2022-10-18T08:11:12;7.05;;;2.20;;
58770;SDS011;44539;42.962;1.596;2022-10-18T08:13:39;6.88;;;2.13;;
58770;SDS011;44539;42.962;1.596;2022-10-18T08:16:05;7.60;;;2.35;;
58770;SDS011;44539;42.962;1.596;2022-10-18T08:18:33;12.55;;;2.20;;
58770;SDS011;44539;42.962;1.596;2022-10-18T08:21:00;7.60;;;2.08;;
58770;SDS011;44539;42.962;1.596;2022-10-18T08:23:27;6.03;;;2.08;;
58770;SDS011;44539;42.962;1.596;2022-10-18T08:25:52;5.60;;;2.33;;
58770;SDS011;44539;42.962;1.596;2022-10-18T08:28:18;8.07;;;2.30;;
58770;SDS011;44539;42.962;1.596;2022-10-18T08:30:43;7.88;;;2.10;;
58770;SDS011;44539;42.962;1.596;2022-10-18T08:33:09;10.88;;;2.15;;
58770;SDS011;44539;42.962;1.596;2022-10-18T08:35:34;6.53;;;2.35;;
58770;SDS011;44539;42.962;1.596;2022-10-18T08:38:00;6.18;;;2.45;;
58770;SDS011;44539;42.962;1.596;2022-10-18T08:40:26;6.20;;;2.00;;
58770;SDS011;44539;42.962;1.596;2022-10-18T08:45:49;5.05;;;1.60;;
58770;SDS011;44539;42.962;1.596;2022-10-18T08:48:21;7.72;;;1.95;;
58770;SDS011;44539;42.962;1.596;2022-10-18T08:51:02;8.70;;;2.40;;
58770;SDS011;44539;42.962;1.596;2022-10-18T08:53:31;6.07;;;2.00;;
58770;SDS011;44539;42.962;1.596;2022-10-18T08:56:11;5.28;;;1.90;;
58770;SDS011;44539;42.962;1.596;2022-10-18T08:58:42;6.07;;;2.00;;
58770;SDS011;44539;42.962;1.596;2022-10-18T09:07:12;23.38;;;2.47;;
58770;SDS011;44539;42.962;1.596;2022-10-18T09:10:07;10.90;;;2.03;;
58770;SDS011;44539;42.962;1.596;2022-10-18T09:18:37;8.52;;;1.95;;
58770;SDS011;44539;42.962;1.596;2022-10-18T09:20:52;10.93;;;2.63;;
58770;SDS011;44539;42.962;1.596;2022-10-18T09:23:30;10.05;;;1.60;;
58770;SDS011;44539;42.962;1.596;2022-10-18T09:26:37;10.27;;;2.10;;
58770;SDS011;44539;42.962;1.596;2022-10-18T09:37:36;13.88;;;2.45;;
58770;SDS011;44539;42.962;1.596;2022-10-18T09:40:11;28.02;;;3.10;;
58770;SDS011;44539;42.962;1.596;2022-10-18T09:42:55;14.02;;;2.00;;
58770;SDS011;44539;42.962;1.596;2022-10-18T09:45:29;11.63;;;2.40;;
58770;SDS011;44539;42.962;1.596;2022-10-18T09:50:40;13.75;;;2.03;;
58770;SDS011;44539;42.962;1.596;2022-10-18T09:53:11;14.55;;;2.10;;
58770;SDS011;44539;42.962;1.596;2022-10-18T09:55:57;14.85;;;1.88;;
58770;SDS011;44539;42.962;1.596;2022-10-18T09:58:33;7.90;;;1.95;;
58770;SDS011;44539;42.962;1.596;2022-10-18T10:01:18;4.85;;;2.15;;
58770;SDS011;44539;42.962;1.596;2022-10-18T10:03:46;9.27;;;2.20;;
58770;SDS011;44539;42.962;1.596;2022-10-18T10:08:48;6.45;;;1.80;;
58770;SDS011;44539;42.962;1.596;2022-10-18T10:11:26;7.95;;;2.00;;
58770;SDS011;44539;42.962;1.596;2022-10-18T10:13:57;5.60;;;2.42;;
58770;SDS011;44539;42.962;1.596;2022-10-18T10:19:22;4.38;;;1.63;;
58770;SDS011;44539;42.962;1.596;2022-10-18T10:22:01;7.73;;;1.60;;
58770;SDS011;44539;42.962;1.596;2022-10-18T10:24:34;5.90;;;1.42;;
58770;SDS011;44539;42.962;1.596;2022-10-18T10:29:54;9.07;;;1.98;;
58770;SDS011;44539;42.962;1.596;2022-10-18T10:32:22;7.30;;;2.03;;
58770;SDS011;44539;42.962;1.596;2022-10-18T10:34:50;3.92;;;1.58;;
58770;SDS011;44539;42.962;1.596;2022-10-18T10:40:03;4.45;;;2.00;;
58770;SDS011;44539;42.962;1.596;2022-10-18T10:42:28;7.97;;;2.20;;
58770;SDS011;44539;42.962;1.596;2022-10-18T10:44:54;9.38;;;2.25;;
58770;SDS011;44539;42.962;1.596;2022-10-18T10:47:32;8.45;;;2.28;;
58770;SDS011;44539;42.962;1.596;2022-10-18T10:50:07;10.45;;;1.95;;
58770;SDS011;44539;42.962;1.596;2022-10-18T10:52:34;6.70;;;2.20;;
58770;SDS011;44539;42.962;1.596;2022-10-18T10:55:02;14.52;;;2.63;;
58770;SDS011;44539;42.962;1.596;2022-10-18T10:57:28;8.82;;;2.55;;
58770;SDS011;44539;42.962;1.596;2022-10-18T10:59:55;8.55;;;2.28;;
58770;SDS011;44539;42.962;1.596;2022-10-18T11:02:30;6.60;;;2.58;;
58770;SDS011;44539;42.962;1.596;2022-10-18T11:05:14;7.47;;;2.47;;
58770;SDS011;44539;42.962;1.596;2022-10-18T11:07:44;8.73;;;2.58;;
58770;SDS011;44539;42.962;1.596;2022-10-18T11:12:45;10.05;;;3.65;;
58770;SDS011;44539;42.962;1.596;2022-10-18T11:20:39;11.07;;;2.80;;
58770;SDS011;44539;42.962;1.596;2022-10-18T11:23:11;10.02;;;2.70;;
58770;SDS011;44539;42.962;1.596;2022-10-18T11:33:54;13.02;;;3.30;;
58770;SDS011;44539;42.962;1.596;2022-10-18T11:39:57;9.50;;;3.20;;
58770;SDS011;44539;42.962;1.596;2022-10-18T11:47:43;9.45;;;2.50;;
58770;SDS011;44539;42.962;1.596;2022-10-18T12:04:18;8.63;;;2.70;;
58770;SDS011;44539;42.962;1.596;2022-10-18T12:06:47;16.27;;;3.22;;
58770;SDS011;44539;42.962;1.596;2022-10-18T12:17:11;9.13;;;2.55;;
58770;SDS011;44539;42.962;1.596;2022-10-18T12:19:53;9.32;;;2.53;;
58770;SDS011;44539;42.962;1.596;2022-10-18T12:22:24;9.27;;;2.70;;
58770;SDS011;44539;42.962;1.596;2022-10-18T12:27:24;8.63;;;2.63;;
58770;SDS011;44539;42.962;1.596;2022-10-18T12:30:13;8.82;;;2.63;;
58770;SDS011;44539;42.962;1.596;2022-10-18T12:32:59;10.77;;;2.90;;
58770;SDS011;44539;42.962;1.596;2022-10-18T12:35:34;9.57;;;3.08;;
58770;SDS011;44539;42.962;1.596;2022-10-18T12:38:20;7.68;;;2.72;;
58770;SDS011;44539;42.962;1.596;2022-10-18T12:40:51;14.10;;;3.00;;
58770;SDS011;44539;42.962;1.596;2022-10-18T12:43:22;11.95;;;3.60;;
58770;SDS011;44539;42.962;1.596;2022-10-18T12:45:52;8.40;;;3.13;;
58770;SDS011;44539;42.962;1.596;2022-10-18T12:48:38;10.07;;;2.97;;
58770;SDS011;44539;42.962;1.596;2022-10-18T12:51:17;11.85;;;2.75;;
58770;SDS011;44539;42.962;1.596;2022-10-18T12:54:30;10.95;;;3.20;;
58770;SDS011;44539;42.962;1.596;2022-10-18T12:56:38;9.27;;;2.60;;
58770;SDS011;44539;42.962;1.596;2022-10-18T13:09:21;9.20;;;2.90;;
58770;SDS011;44539;42.962;1.596;2022-10-18T13:11:47;8.75;;;2.65;;
58770;SDS011;44539;42.962;1.596;2022-10-18T13:22:51;16.98;;;4.07;;
58770;SDS011;44539;42.962;1.596;2022-10-18T13:28:29;13.55;;;2.90;;
58770;SDS011;44539;42.962;1.596;2022-10-18T13:33:44;7.32;;;2.70;;
58770;SDS011;44539;42.962;1.596;2022-10-18T13:38:42;9.80;;;2.90;;
58770;SDS011;44539;42.962;1.596;2022-10-18T13:41:19;10.65;;;3.00;;
58770;SDS011;44539;42.962;1.596;2022-10-18T13:54:35;10.02;;;3.17;;
58770;SDS011;44539;42.962;1.596;2022-10-18T14:08:21;9.20;;;2.83;;
58770;SDS011;44539;42.962;1.596;2022-10-18T14:13:44;11.90;;;2.80;;
58770;SDS011;44539;42.962;1.596;2022-10-18T14:19:37;11.87;;;2.80;;
58770;SDS011;44539;42.962;1.596;2022-10-18T14:22:14;12.18;;;2.80;;
58770;SDS011;44539;42.962;1.596;2022-10-18T14:24:43;14.32;;;2.90;;
58770;SDS011;44539;42.962;1.596;2022-10-18T14:27:14;16.08;;;2.88;;
58770;SDS011;44539;42.962;1.596;2022-10-18T14:29:44;7.57;;;2.88;;
58770;SDS011;44539;42.962;1.596;2022-10-18T14:32:27;8.65;;;2.80;;
58770;SDS011;44539;42.962;1.596;2022-10-18T14:34:55;8.20;;;2.60;;
58770;SDS011;44539;42.962;1.596;2022-10-18T14:37:41;11.77;;;2.90;;
58770;SDS011;44539;42.962;1.596;2022-10-18T14:40:23;9.68;;;2.72;;
58770;SDS011;44539;42.962;1.596;2022-10-18T14:45:32;9.23;;;2.63;;
58770;SDS011;44539;42.962;1.596;2022-10-18T14:48:31;11.35;;;2.90;;
58770;SDS011;44539;42.962;1.596;2022-10-18T14:50:54;10.05;;;3.20;;
